createdAt,value
2022-08-17T00:01:27.643Z,21.30
2022-08-17T00:04:10.908Z,21.24
2022-08-17T00:06:53.949Z,21.17
2022-08-17T00:09:35.847Z,21.08
2022-08-17T00:12:43.611Z,20.98
2022-08-17T00:15:21.245Z,20.89
2022-08-17T00:18:03.548Z,20.82
2022-08-17T00:21:10.490Z,20.76
2022-08-17T00:23:53.562Z,20.73
2022-08-17T00:26:45.182Z,20.69
2022-08-17T00:29:27.381Z,20.64
2022-08-17T00:33:15.853Z,20.61
2022-08-17T00:35:12.471Z,20.58
2022-08-17T00:37:54.369Z,20.55
2022-08-17T00:40:40.846Z,20.51
2022-08-17T00:43:38.230Z,20.47
2022-08-17T00:46:28.625Z,20.40
2022-08-17T00:49:11.749Z,20.36
2022-08-17T00:51:56.324Z,20.35
2022-08-17T00:54:41.971Z,20.33
2022-08-17T00:57:35.560Z,20.31
2022-08-17T01:00:21.555Z,20.29
2022-08-17T01:03:06.829Z,20.31
2022-08-17T01:05:51.385Z,20.33
2022-08-17T01:08:33.691Z,20.35
2022-08-17T01:11:15.690Z,20.35
2022-08-17T01:13:58.608Z,20.34
2022-08-17T01:16:40.505Z,20.33
2022-08-17T01:19:24.449Z,20.29
2022-08-17T01:22:09.318Z,20.27
2022-08-17T01:24:53.872Z,20.27
2022-08-17T01:27:36.382Z,20.28
2022-08-17T01:30:57.810Z,20.28
2022-08-17T01:33:20.554Z,20.27
2022-08-17T01:36:02.965Z,20.26
2022-08-17T01:38:44.756Z,20.27
2022-08-17T01:41:27.365Z,20.27
2022-08-17T01:44:09.466Z,20.28
2022-08-17T01:46:51.258Z,20.27
2022-08-17T01:49:34.374Z,20.28
2022-08-17T01:52:17.304Z,20.26
2022-08-17T01:54:59.506Z,20.23
2022-08-17T01:57:41.402Z,20.18
2022-08-17T02:00:23.198Z,20.11
2022-08-17T02:03:05.706Z,20.05
2022-08-17T02:05:49.173Z,20.00
2022-08-17T02:08:38.794Z,19.97
2022-08-17T02:11:21.940Z,19.95
2022-08-17T02:14:05.782Z,19.94
2022-08-17T02:16:47.580Z,19.94
2022-08-17T02:19:31.519Z,19.92
2022-08-17T02:22:13.414Z,19.93
2022-08-17T02:24:58.475Z,19.95
2022-08-17T02:27:43.350Z,19.97
2022-08-17T02:30:59.265Z,19.95
2022-08-17T02:33:41.637Z,19.90
2022-08-17T02:36:27.425Z,19.87
2022-08-17T02:39:10.869Z,19.86
2022-08-17T02:42:00.137Z,19.82
2022-08-17T02:44:41.931Z,19.81
2022-08-17T02:47:24.339Z,19.81
2022-08-17T02:50:07.057Z,19.81
2022-08-17T02:53:01.778Z,19.82
2022-08-17T02:55:44.568Z,19.79
2022-08-17T02:58:35.233Z,19.77
2022-08-17T03:01:17.842Z,19.76
2022-08-17T03:03:59.880Z,19.76
2022-08-17T03:06:41.776Z,19.76
2022-08-17T03:09:23.570Z,19.74
2022-08-17T03:12:13.146Z,19.73
2022-08-17T03:14:55.037Z,19.72
2022-08-17T03:17:37.447Z,19.72
2022-08-17T03:20:20.368Z,19.69
2022-08-17T03:23:03.036Z,19.67
2022-08-17T03:25:46.722Z,19.66
2022-08-17T03:28:28.615Z,19.64
2022-08-17T03:31:10.512Z,19.63
2022-08-17T03:33:52.351Z,19.61
2022-08-17T03:36:36.053Z,19.59
2022-08-17T03:39:18.144Z,19.59
2022-08-17T03:42:32.072Z,19.59
2022-08-17T03:45:17.264Z,19.59
2022-08-17T03:48:17.900Z,19.57
2022-08-17T03:51:18.267Z,19.56
2022-08-17T03:54:18.860Z,19.56
2022-08-17T03:57:06.933Z,19.57
2022-08-17T03:59:48.844Z,19.58
2022-08-17T04:02:31.924Z,19.57
2022-08-17T04:05:15.167Z,19.52
2022-08-17T04:07:56.943Z,19.51
2022-08-17T04:10:44.809Z,19.52
2022-08-17T04:13:27.492Z,19.57
2022-08-17T04:16:09.286Z,19.61
2022-08-17T04:18:51.441Z,19.66
2022-08-17T04:21:33.642Z,19.70
2022-08-17T04:24:15.486Z,19.73
2022-08-17T04:26:57.484Z,19.75
2022-08-17T04:29:55.071Z,19.76
2022-08-17T04:33:10.236Z,19.79
2022-08-17T04:35:54.269Z,19.84
2022-08-17T04:38:37.701Z,19.89
2022-08-17T04:41:38.438Z,19.95
2022-08-17T04:44:36.830Z,20.03
2022-08-17T04:47:19.842Z,20.07
2022-08-17T04:50:04.298Z,20.12
2022-08-17T04:52:46.604Z,20.18
2022-08-17T04:55:28.707Z,20.24
2022-08-17T04:58:11.009Z,20.30
2022-08-17T05:00:53.988Z,20.36
2022-08-17T05:03:35.928Z,20.43
2022-08-17T05:06:17.822Z,20.50
2022-08-17T05:09:00.334Z,20.58
2022-08-17T05:11:44.931Z,20.64
2022-08-17T05:14:32.921Z,20.68
2022-08-17T05:17:15.696Z,20.72
2022-08-17T05:19:57.646Z,20.77
2022-08-17T05:22:51.512Z,20.82
2022-08-17T05:25:36.209Z,20.88
2022-08-17T05:28:22.930Z,20.95
2022-08-17T05:31:06.109Z,21.00
2022-08-17T05:33:47.899Z,21.09
2022-08-17T05:36:42.111Z,21.19
2022-08-17T05:39:25.930Z,21.32
2022-08-17T05:42:07.832Z,21.43
2022-08-17T05:44:49.727Z,21.58
2022-08-17T05:47:31.520Z,21.71
2022-08-17T05:50:21.160Z,21.89
2022-08-17T05:53:18.407Z,22.08
2022-08-17T05:56:00.145Z,22.23
2022-08-17T05:59:01.907Z,22.40
2022-08-17T06:02:03.157Z,22.58
2022-08-17T06:05:01.436Z,22.73
2022-08-17T06:07:49.517Z,22.83
2022-08-17T06:10:46.835Z,22.96
2022-08-17T06:13:48.087Z,23.15
2022-08-17T06:16:34.397Z,23.27
2022-08-17T06:19:32.970Z,23.44
2022-08-17T06:22:16.710Z,23.63
2022-08-17T06:25:02.611Z,23.79
2022-08-17T06:27:53.584Z,23.99
2022-08-17T06:30:58.642Z,24.21
2022-08-17T06:33:45.792Z,24.44
2022-08-17T06:36:33.599Z,24.59
2022-08-17T06:39:34.162Z,24.80
2022-08-17T06:43:02.330Z,24.99
2022-08-17T06:45:31.410Z,25.26
2022-08-17T06:48:24.571Z,25.50
2022-08-17T06:51:11.586Z,25.66
2022-08-17T06:53:59.829Z,25.82
2022-08-17T06:57:00.259Z,26.05
2022-08-17T06:59:56.160Z,26.30
2022-08-17T07:02:53.157Z,26.45
2022-08-17T07:05:54.016Z,26.60
2022-08-17T07:08:55.529Z,26.84
2022-08-17T07:11:45.617Z,27.09
2022-08-17T07:14:27.413Z,27.29
2022-08-17T07:17:10.949Z,27.40
2022-08-17T07:19:57.041Z,27.54
2022-08-17T07:22:55.263Z,27.68
2022-08-17T07:25:42.130Z,27.80
2022-08-17T07:28:24.028Z,27.89
2022-08-17T07:31:07.252Z,28.08
2022-08-17T07:33:59.597Z,28.32
2022-08-17T07:36:42.416Z,28.57
2022-08-17T07:39:28.180Z,28.75
2022-08-17T07:42:10.810Z,28.89
2022-08-17T07:44:54.345Z,29.08
2022-08-17T07:47:55.593Z,29.13
2022-08-17T07:50:37.374Z,29.33
2022-08-17T07:53:20.920Z,29.49
2022-08-17T07:56:02.919Z,29.71
2022-08-17T07:58:47.784Z,29.87
2022-08-17T08:01:41.621Z,30.07
2022-08-17T08:07:36.685Z,30.40
2022-08-17T08:10:31.381Z,30.58
2022-08-17T08:13:14.730Z,30.64
2022-08-17T08:16:12.274Z,30.75
2022-08-17T08:18:57.561Z,30.88
2022-08-17T08:21:39.956Z,30.88
2022-08-17T08:24:34.241Z,30.99
2022-08-17T08:27:22.281Z,31.17
2022-08-17T08:30:14.626Z,31.39
2022-08-17T08:33:17.410Z,31.43
2022-08-17T08:36:09.852Z,31.51
2022-08-17T08:38:57.523Z,31.62
2022-08-17T08:41:57.711Z,31.74
2022-08-17T08:45:00.663Z,31.90
2022-08-17T08:48:22.789Z,32.01
2022-08-17T08:51:24.496Z,32.08
2022-08-17T08:54:13.459Z,32.19
2022-08-17T09:00:17.971Z,32.41
2022-08-17T09:03:06.372Z,32.52
2022-08-17T09:06:32.146Z,32.70
2022-08-17T09:09:18.169Z,32.95
2022-08-17T09:12:05.514Z,33.12
2022-08-17T09:14:50.561Z,33.27
2022-08-17T09:17:38.501Z,33.39
2022-08-17T09:20:28.314Z,33.47
2022-08-17T09:23:14.888Z,33.53
2022-08-17T09:26:05.743Z,33.52
2022-08-17T09:28:49.842Z,33.66
2022-08-17T09:31:49.128Z,33.75
2022-08-17T09:34:33.598Z,33.88
2022-08-17T09:37:30.753Z,34.00
2022-08-17T09:40:23.288Z,34.07
2022-08-17T09:43:05.808Z,33.99
2022-08-17T09:45:57.635Z,33.91
2022-08-17T09:48:42.960Z,33.99
2022-08-17T09:51:30.849Z,34.07
2022-08-17T09:54:38.095Z,34.10
2022-08-17T09:57:39.335Z,34.08
2022-08-17T10:00:27.668Z,34.02
2022-08-17T10:03:16.893Z,34.09
2022-08-17T10:06:21.719Z,34.06
2022-08-17T10:09:06.805Z,34.10
2022-08-17T10:12:11.638Z,34.05
2022-08-17T10:15:09.336Z,34.12
2022-08-17T10:18:09.017Z,34.27
2022-08-17T10:21:19.692Z,34.39
2022-08-17T10:24:29.437Z,34.47
2022-08-17T10:27:13.174Z,34.46
2022-08-17T10:30:04.034Z,34.24
2022-08-17T10:32:57.139Z,34.12
2022-08-17T10:35:51.017Z,34.00
2022-08-17T10:38:46.275Z,34.11
2022-08-17T10:41:50.750Z,34.16
2022-08-17T10:44:51.799Z,34.43
2022-08-17T10:47:55.615Z,34.46
2022-08-17T10:50:47.661Z,34.20
2022-08-17T10:53:32.516Z,34.16
2022-08-17T10:56:14.504Z,34.16
2022-08-17T10:58:57.833Z,34.21
2022-08-17T11:01:40.239Z,34.30
2022-08-17T11:04:36.165Z,34.51
2022-08-17T11:07:27.904Z,34.80
2022-08-17T11:10:22.277Z,35.08
2022-08-17T11:13:07.349Z,35.31
2022-08-17T11:16:09.213Z,35.49
2022-08-17T11:18:51.108Z,35.58
2022-08-17T11:21:56.043Z,35.49
2022-08-17T11:24:40.314Z,35.53
2022-08-17T11:27:31.201Z,35.34
2022-08-17T11:30:32.966Z,35.22
2022-08-17T11:33:38.231Z,35.13
2022-08-17T11:36:46.362Z,34.97
2022-08-17T11:39:31.186Z,34.48
2022-08-17T11:42:31.613Z,34.09
2022-08-17T11:45:33.094Z,33.80
2022-08-17T11:48:49.879Z,33.57
2022-08-17T11:51:50.720Z,33.27
2022-08-17T11:54:34.374Z,33.03
2022-08-17T11:57:19.734Z,32.86
2022-08-17T12:00:08.869Z,32.72
2022-08-17T12:03:10.688Z,32.54
2022-08-17T12:06:01.364Z,32.43
2022-08-17T12:08:45.769Z,32.31
2022-08-17T12:11:58.650Z,32.20
2022-08-17T12:15:08.073Z,32.10
2022-08-17T12:17:52.144Z,32.02
2022-08-17T12:20:40.474Z,31.97
2022-08-17T12:23:36.399Z,31.91
2022-08-17T12:26:19.935Z,31.88
2022-08-17T12:29:07.053Z,31.89
2022-08-17T12:31:52.636Z,31.99
2022-08-17T12:34:36.783Z,32.08
2022-08-17T12:37:21.033Z,32.21
2022-08-17T12:40:08.859Z,32.32
2022-08-17T12:42:55.885Z,32.39
2022-08-17T12:45:39.931Z,32.43
2022-08-17T12:48:23.159Z,32.44
2022-08-17T12:51:07.921Z,32.37
2022-08-17T12:53:53.092Z,32.33
2022-08-17T12:56:36.933Z,32.35
2022-08-17T12:59:29.602Z,32.37
2022-08-17T13:02:19.772Z,32.41
2022-08-17T13:05:01.977Z,32.49
2022-08-17T13:07:44.819Z,32.55
2022-08-17T13:10:32.761Z,32.59
2022-08-17T13:13:23.533Z,32.55
2022-08-17T13:16:05.431Z,32.49
2022-08-17T13:18:49.070Z,32.43
2022-08-17T13:21:33.275Z,32.42
2022-08-17T13:24:19.821Z,32.40
2022-08-17T13:27:01.564Z,32.35
2022-08-17T13:29:53.832Z,32.32
2022-08-17T13:32:47.525Z,32.30
2022-08-17T13:35:41.605Z,32.28
2022-08-17T13:38:41.277Z,32.27
2022-08-17T13:41:30.075Z,32.27
2022-08-17T13:44:32.146Z,32.28
2022-08-17T13:47:19.003Z,32.30
2022-08-17T13:50:00.866Z,32.34
2022-08-17T13:52:44.579Z,32.37
2022-08-17T13:55:29.153Z,32.33
2022-08-17T13:58:10.986Z,32.36
2022-08-17T14:00:53.451Z,32.37
2022-08-17T14:03:35.245Z,32.31
2022-08-17T14:06:51.482Z,32.25
2022-08-17T14:09:20.480Z,32.17
2022-08-17T14:12:04.792Z,32.09
2022-08-17T14:14:46.584Z,31.99
2022-08-17T14:17:36.578Z,31.94
2022-08-17T14:20:21.948Z,31.89
2022-08-17T14:23:03.845Z,31.84
2022-08-17T14:25:47.277Z,31.77
2022-08-17T14:28:29.070Z,31.72
2022-08-17T14:31:10.965Z,31.65
2022-08-17T14:33:52.963Z,31.66
2022-08-17T14:36:34.859Z,31.66
2022-08-17T14:39:17.616Z,31.66
2022-08-17T14:42:00.653Z,31.67
2022-08-17T14:44:42.491Z,31.63
2022-08-17T14:47:24.489Z,31.62
2022-08-17T14:50:09.809Z,31.61
2022-08-17T14:52:52.889Z,31.59
2022-08-17T14:55:35.807Z,31.61
2022-08-17T14:58:18.222Z,31.60
2022-08-17T15:01:00.019Z,31.57
2022-08-17T15:03:42.173Z,31.54
2022-08-17T15:06:25.849Z,31.50
2022-08-17T15:09:07.644Z,31.44
2022-08-17T15:11:50.870Z,31.37
2022-08-17T15:14:33.994Z,31.30
2022-08-17T15:17:15.786Z,31.23
2022-08-17T15:19:57.785Z,31.20
2022-08-17T15:22:41.011Z,31.18
2022-08-17T15:25:23.329Z,31.14
2022-08-17T15:28:05.213Z,31.07
2022-08-17T15:30:47.006Z,31.02
2022-08-17T15:34:41.711Z,31.01
2022-08-17T15:37:28.316Z,31.00
2022-08-17T15:40:11.719Z,31.03
2022-08-17T15:42:54.160Z,31.06
2022-08-17T15:45:36.061Z,31.08
2022-08-17T15:48:18.809Z,31.10
2022-08-17T15:51:01.173Z,31.15
2022-08-17T15:53:45.630Z,31.20
2022-08-17T15:56:28.772Z,31.23
2022-08-17T15:59:10.650Z,31.25
2022-08-17T16:03:13.943Z,31.27
2022-08-17T16:05:06.051Z,31.25
2022-08-17T16:07:53.605Z,31.21
2022-08-17T16:10:36.516Z,31.15
2022-08-17T16:13:19.657Z,31.10
2022-08-17T16:16:01.552Z,31.03
2022-08-17T16:18:43.753Z,30.96
2022-08-17T16:21:26.073Z,30.89
2022-08-17T16:24:13.618Z,30.84
2022-08-17T16:26:57.119Z,30.80
2022-08-17T16:29:40.392Z,30.76
2022-08-17T16:32:31.692Z,30.72
2022-08-17T16:35:18.681Z,30.68
2022-08-17T16:38:00.683Z,30.64
2022-08-17T16:40:42.879Z,30.61
2022-08-17T16:43:24.775Z,30.58
2022-08-17T16:46:06.671Z,30.55
2022-08-17T16:48:48.570Z,30.51
2022-08-17T16:51:31.486Z,30.49
2022-08-17T16:54:17.590Z,30.45
2022-08-17T16:56:59.630Z,30.43
2022-08-17T16:59:44.949Z,30.42
2022-08-17T17:02:34.428Z,30.41
2022-08-17T17:05:58.073Z,30.39
2022-08-17T17:08:48.588Z,30.34
2022-08-17T17:11:42.274Z,30.31
2022-08-17T17:14:32.054Z,30.28
2022-08-17T17:17:28.183Z,30.23
2022-08-17T17:20:18.373Z,30.16
2022-08-17T17:23:09.712Z,30.10
2022-08-17T17:26:03.772Z,30.03
2022-08-17T17:28:59.122Z,29.97
2022-08-17T17:32:21.225Z,29.91
2022-08-17T17:35:09.440Z,29.82
2022-08-17T17:37:57.407Z,29.73
2022-08-17T17:40:44.420Z,29.67
2022-08-17T17:43:38.931Z,29.62
2022-08-17T17:46:35.550Z,29.55
2022-08-17T17:49:18.717Z,29.48
2022-08-17T17:52:15.627Z,29.42
2022-08-17T17:55:28.496Z,29.34
2022-08-17T17:58:36.657Z,29.27
2022-08-17T18:01:30.776Z,29.20
2022-08-17T18:04:23.796Z,29.13
2022-08-17T18:07:25.046Z,29.07
2022-08-17T18:10:45.299Z,29.01
2022-08-17T18:13:43.825Z,28.92
2022-08-17T18:16:27.975Z,28.86
2022-08-17T18:19:15.918Z,28.81
2022-08-17T18:22:04.259Z,28.75
2022-08-17T18:24:56.119Z,28.70
2022-08-17T18:27:40.967Z,28.64
2022-08-17T18:30:29.064Z,28.59
2022-08-17T18:33:26.690Z,28.54
2022-08-17T18:36:09.373Z,28.46
2022-08-17T18:39:12.170Z,28.42
2022-08-17T18:41:57.153Z,28.36
2022-08-17T18:44:39.128Z,28.30
2022-08-17T18:47:26.242Z,28.23
2022-08-17T18:50:43.875Z,28.18
2022-08-17T18:53:30.384Z,28.08
2022-08-17T18:56:17.922Z,27.98
2022-08-17T18:59:10.082Z,27.89
2022-08-17T19:02:10.066Z,27.82
2022-08-17T19:05:17.458Z,27.74
2022-08-17T19:08:18.143Z,27.68
2022-08-17T19:11:07.669Z,27.62
2022-08-17T19:14:02.370Z,27.55
2022-08-17T19:16:54.707Z,27.49
2022-08-17T19:20:06.399Z,27.41
2022-08-17T19:22:58.960Z,27.31
2022-08-17T19:25:50.261Z,27.23
2022-08-17T19:29:02.879Z,27.15
2022-08-17T19:31:48.155Z,27.09
2022-08-17T19:34:34.449Z,27.02
2022-08-17T19:37:43.382Z,26.92
2022-08-17T19:41:05.294Z,26.80
2022-08-17T19:44:17.930Z,26.71
2022-08-17T19:47:43.091Z,26.65
2022-08-17T19:50:56.371Z,26.60
2022-08-17T19:54:06.612Z,26.54
2022-08-17T19:56:56.052Z,26.47
2022-08-17T19:59:49.548Z,26.41
2022-08-17T20:03:16.548Z,26.37
2022-08-17T20:06:18.328Z,26.30
2022-08-17T20:09:22.507Z,26.24
2022-08-17T20:12:11.608Z,26.17
2022-08-17T20:15:00.351Z,26.11
2022-08-17T20:17:46.471Z,26.08
2022-08-17T20:20:59.255Z,26.05
2022-08-17T20:23:59.674Z,26.02
2022-08-17T20:26:55.454Z,25.99
2022-08-17T20:29:55.315Z,25.97
2022-08-17T20:32:55.752Z,25.94
2022-08-17T20:35:39.377Z,25.90
2022-08-17T20:38:50.558Z,25.86
2022-08-17T20:42:03.239Z,25.83
2022-08-17T20:44:46.413Z,25.80
2022-08-17T20:48:00.799Z,25.78
2022-08-17T20:51:02.465Z,25.76
2022-08-17T20:53:47.487Z,25.74
2022-08-17T20:56:44.742Z,25.73
2022-08-17T20:59:27.867Z,25.71
2022-08-17T21:02:19.386Z,25.68
2022-08-17T21:05:07.315Z,25.64
2022-08-17T21:07:56.401Z,25.59
2022-08-17T21:10:40.686Z,25.57
2022-08-17T21:13:46.705Z,25.55
2022-08-17T21:16:36.485Z,25.51
2022-08-17T21:19:54.176Z,25.48
2022-08-17T21:22:55.112Z,25.45
2022-08-17T21:26:14.537Z,25.40
2022-08-17T21:29:32.505Z,25.33
2022-08-17T21:32:24.348Z,25.26
2022-08-17T21:35:07.126Z,25.21
2022-08-17T21:37:53.269Z,25.16
2022-08-17T21:40:35.421Z,25.13
2022-08-17T21:43:29.606Z,25.07
2022-08-17T21:46:27.526Z,25.00
2022-08-17T21:49:14.260Z,24.93
2022-08-17T21:51:59.461Z,24.87
2022-08-17T21:54:49.625Z,24.82
2022-08-17T21:57:35.103Z,24.78
2022-08-17T22:00:29.312Z,24.77
2022-08-17T22:03:24.877Z,24.76
2022-08-17T22:06:24.202Z,24.75
2022-08-17T22:09:26.098Z,24.72
2022-08-17T22:12:11.402Z,24.68
2022-08-17T22:15:06.379Z,24.64
2022-08-17T22:17:48.888Z,24.60
2022-08-17T22:20:31.090Z,24.56
2022-08-17T22:23:33.056Z,24.52
2022-08-17T22:26:18.074Z,24.46
2022-08-17T22:29:00.227Z,24.41
2022-08-17T22:32:08.544Z,24.35
2022-08-17T22:35:16.345Z,24.24
2022-08-17T22:38:18.056Z,24.15
2022-08-17T22:41:26.114Z,24.08
2022-08-17T22:44:28.363Z,24.03
2022-08-17T22:47:21.254Z,23.99
2022-08-17T22:50:12.150Z,23.98
2022-08-17T22:53:20.571Z,23.98
2022-08-17T22:56:22.223Z,23.97
2022-08-17T22:59:20.606Z,23.95
2022-08-17T23:02:24.112Z,23.91
2022-08-17T23:05:10.310Z,23.89
2022-08-17T23:07:53.213Z,23.85
2022-08-17T23:10:36.193Z,23.83
2022-08-17T23:13:18.553Z,23.81
2022-08-17T23:16:00.601Z,23.78
2022-08-17T23:18:42.549Z,23.73
2022-08-17T23:21:29.769Z,23.68
2022-08-17T23:24:17.123Z,23.63
2022-08-17T23:26:59.238Z,23.59
2022-08-17T23:29:42.421Z,23.54
2022-08-17T23:32:25.033Z,23.49
2022-08-17T23:35:09.417Z,23.44
2022-08-17T23:37:52.397Z,23.41
2022-08-17T23:40:34.715Z,23.39
2022-08-17T23:43:25.203Z,23.36
2022-08-17T23:46:07.823Z,23.34
2022-08-17T23:48:53.713Z,23.32
2022-08-17T23:51:42.696Z,23.29
2022-08-17T23:54:27.601Z,23.26
2022-08-17T23:57:15.934Z,23.24
2022-08-17T23:59:57.990Z,23.23
